sensor_id;sensor_type;location;lat;lon;timestamp;P1;durP1;ratioP1;P2;durP2;ratioP2
15130;SDS011;7666;50.920;4.628;2022-12-24T00:02:09;29.73;;;5.63;;
15130;SDS011;7666;50.920;4.628;2022-12-24T00:04:54;28.00;;;5.80;;
15130;SDS011;7666;50.920;4.628;2022-12-24T00:07:40;24.53;;;5.17;;
15130;SDS011;7666;50.920;4.628;2022-12-24T00:10:27;25.20;;;5.63;;
15130;SDS011;7666;50.920;4.628;2022-12-24T00:13:13;23.97;;;5.50;;
15130;SDS011;7666;50.920;4.628;2022-12-24T00:15:59;31.83;;;5.03;;
15130;SDS011;7666;50.920;4.628;2022-12-24T00:18:45;31.23;;;5.50;;
15130;SDS011;7666;50.920;4.628;2022-12-24T00:21:31;29.97;;;5.90;;
15130;SDS011;7666;50.920;4.628;2022-12-24T00:24:17;31.50;;;5.77;;
15130;SDS011;7666;50.920;4.628;2022-12-24T00:27:03;25.93;;;4.90;;
15130;SDS011;7666;50.920;4.628;2022-12-24T00:29:50;28.90;;;6.17;;
15130;SDS011;7666;50.920;4.628;2022-12-24T00:32:36;29.90;;;5.93;;
15130;SDS011;7666;50.920;4.628;2022-12-24T00:35:23;33.43;;;6.20;;
15130;SDS011;7666;50.920;4.628;2022-12-24T00:38:09;31.77;;;6.17;;
15130;SDS011;7666;50.920;4.628;2022-12-24T00:41:04;27.20;;;5.80;;
15130;SDS011;7666;50.920;4.628;2022-12-24T00:44:08;27.07;;;5.73;;
15130;SDS011;7666;50.920;4.628;2022-12-24T00:46:54;28.33;;;6.63;;
15130;SDS011;7666;50.920;4.628;2022-12-24T00:49:40;27.20;;;5.73;;
15130;SDS011;7666;50.920;4.628;2022-12-24T00:52:26;30.30;;;5.97;;
15130;SDS011;7666;50.920;4.628;2022-12-24T00:55:12;21.27;;;4.87;;
15130;SDS011;7666;50.920;4.628;2022-12-24T00:57:58;27.40;;;5.37;;
15130;SDS011;7666;50.920;4.628;2022-12-24T01:00:44;27.97;;;5.43;;
15130;SDS011;7666;50.920;4.628;2022-12-24T01:03:30;27.17;;;5.43;;
15130;SDS011;7666;50.920;4.628;2022-12-24T01:06:20;26.63;;;5.87;;
15130;SDS011;7666;50.920;4.628;2022-12-24T01:09:06;25.77;;;4.60;;
15130;SDS011;7666;50.920;4.628;2022-12-24T01:11:52;26.90;;;5.53;;
15130;SDS011;7666;50.920;4.628;2022-12-24T01:14:38;23.97;;;5.13;;
15130;SDS011;7666;50.920;4.628;2022-12-24T01:17:24;27.00;;;5.00;;
15130;SDS011;7666;50.920;4.628;2022-12-24T01:20:12;22.50;;;5.37;;
15130;SDS011;7666;50.920;4.628;2022-12-24T01:23:00;25.90;;;5.73;;
15130;SDS011;7666;50.920;4.628;2022-12-24T01:25:45;31.43;;;6.00;;
15130;SDS011;7666;50.920;4.628;2022-12-24T01:28:32;23.00;;;5.23;;
15130;SDS011;7666;50.920;4.628;2022-12-24T01:31:18;28.17;;;5.20;;
15130;SDS011;7666;50.920;4.628;2022-12-24T01:34:04;24.63;;;4.57;;
15130;SDS011;7666;50.920;4.628;2022-12-24T01:36:50;28.17;;;5.47;;
15130;SDS011;7666;50.920;4.628;2022-12-24T01:39:36;20.47;;;4.97;;
15130;SDS011;7666;50.920;4.628;2022-12-24T01:42:22;21.50;;;4.10;;
15130;SDS011;7666;50.920;4.628;2022-12-24T01:45:41;26.40;;;4.90;;
15130;SDS011;7666;50.920;4.628;2022-12-24T01:48:51;24.53;;;5.37;;
15130;SDS011;7666;50.920;4.628;2022-12-24T01:51:45;21.20;;;4.67;;
15130;SDS011;7666;50.920;4.628;2022-12-24T01:54:40;19.33;;;4.47;;
15130;SDS011;7666;50.920;4.628;2022-12-24T01:57:34;21.40;;;4.43;;
15130;SDS011;7666;50.920;4.628;2022-12-24T02:00:24;18.30;;;3.93;;
15130;SDS011;7666;50.920;4.628;2022-12-24T02:03:10;25.83;;;4.17;;
15130;SDS011;7666;50.920;4.628;2022-12-24T02:05:56;16.83;;;3.83;;
15130;SDS011;7666;50.920;4.628;2022-12-24T02:08:44;19.10;;;4.40;;
15130;SDS011;7666;50.920;4.628;2022-12-24T02:11:30;18.67;;;4.10;;
15130;SDS011;7666;50.920;4.628;2022-12-24T02:14:16;18.47;;;3.97;;
15130;SDS011;7666;50.920;4.628;2022-12-24T02:32:00;27.90;;;5.17;;
15130;SDS011;7666;50.920;4.628;2022-12-24T02:34:54;24.63;;;5.40;;
15130;SDS011;7666;50.920;4.628;2022-12-24T02:37:42;23.93;;;5.47;;
15130;SDS011;7666;50.920;4.628;2022-12-24T02:40:39;34.57;;;5.87;;
15130;SDS011;7666;50.920;4.628;2022-12-24T02:43:31;22.83;;;4.90;;
15130;SDS011;7666;50.920;4.628;2022-12-24T02:46:21;25.93;;;5.33;;
15130;SDS011;7666;50.920;4.628;2022-12-24T02:49:12;27.13;;;5.57;;
15130;SDS011;7666;50.920;4.628;2022-12-24T02:51:58;22.33;;;4.97;;
15130;SDS011;7666;50.920;4.628;2022-12-24T02:54:44;23.47;;;4.90;;
15130;SDS011;7666;50.920;4.628;2022-12-24T03:04:19;22.20;;;4.93;;
15130;SDS011;7666;50.920;4.628;2022-12-24T03:07:28;24.43;;;4.80;;
15130;SDS011;7666;50.920;4.628;2022-12-24T03:10:19;20.53;;;4.83;;
15130;SDS011;7666;50.920;4.628;2022-12-24T03:13:15;22.00;;;4.10;;
15130;SDS011;7666;50.920;4.628;2022-12-24T03:16:03;19.60;;;4.90;;
15130;SDS011;7666;50.920;4.628;2022-12-24T03:18:52;23.37;;;5.53;;
15130;SDS011;7666;50.920;4.628;2022-12-24T03:21:41;18.93;;;4.30;;
15130;SDS011;7666;50.920;4.628;2022-12-24T03:24:27;19.77;;;4.40;;
15130;SDS011;7666;50.920;4.628;2022-12-24T03:27:13;16.93;;;4.17;;
15130;SDS011;7666;50.920;4.628;2022-12-24T03:30:01;19.53;;;4.30;;
15130;SDS011;7666;50.920;4.628;2022-12-24T03:32:48;23.37;;;4.87;;
15130;SDS011;7666;50.920;4.628;2022-12-24T03:35:34;18.17;;;4.07;;
15130;SDS011;7666;50.920;4.628;2022-12-24T03:38:20;19.30;;;4.53;;
15130;SDS011;7666;50.920;4.628;2022-12-24T03:41:06;16.17;;;4.20;;
15130;SDS011;7666;50.920;4.628;2022-12-24T03:43:52;21.97;;;5.07;;
15130;SDS011;7666;50.920;4.628;2022-12-24T03:46:38;22.60;;;4.90;;
15130;SDS011;7666;50.920;4.628;2022-12-24T03:49:24;22.83;;;5.33;;
15130;SDS011;7666;50.920;4.628;2022-12-24T03:52:10;22.80;;;5.00;;
15130;SDS011;7666;50.920;4.628;2022-12-24T03:54:56;19.23;;;4.57;;
15130;SDS011;7666;50.920;4.628;2022-12-24T03:57:42;23.70;;;4.77;;
15130;SDS011;7666;50.920;4.628;2022-12-24T04:00:28;23.80;;;5.40;;
15130;SDS011;7666;50.920;4.628;2022-12-24T04:03:14;29.83;;;5.90;;
15130;SDS011;7666;50.920;4.628;2022-12-24T04:06:01;27.40;;;5.70;;
15130;SDS011;7666;50.920;4.628;2022-12-24T04:08:51;27.17;;;5.67;;
15130;SDS011;7666;50.920;4.628;2022-12-24T04:11:37;20.87;;;5.80;;
15130;SDS011;7666;50.920;4.628;2022-12-24T04:14:23;26.77;;;5.70;;
15130;SDS011;7666;50.920;4.628;2022-12-24T04:17:09;26.40;;;6.33;;
15130;SDS011;7666;50.920;4.628;2022-12-24T04:19:55;20.83;;;4.53;;
15130;SDS011;7666;50.920;4.628;2022-12-24T04:22:41;33.73;;;6.57;;
15130;SDS011;7666;50.920;4.628;2022-12-24T04:25:27;27.20;;;5.57;;
15130;SDS011;7666;50.920;4.628;2022-12-24T04:28:13;34.00;;;6.27;;
15130;SDS011;7666;50.920;4.628;2022-12-24T04:31:04;30.50;;;5.77;;
15130;SDS011;7666;50.920;4.628;2022-12-24T04:33:52;28.37;;;5.43;;
15130;SDS011;7666;50.920;4.628;2022-12-24T04:36:38;31.17;;;5.67;;
15130;SDS011;7666;50.920;4.628;2022-12-24T04:39:23;31.07;;;5.13;;
15130;SDS011;7666;50.920;4.628;2022-12-24T04:42:09;24.67;;;4.97;;
15130;SDS011;7666;50.920;4.628;2022-12-24T04:44:55;24.80;;;5.47;;
15130;SDS011;7666;50.920;4.628;2022-12-24T04:47:41;32.10;;;5.93;;
15130;SDS011;7666;50.920;4.628;2022-12-24T04:50:27;31.20;;;5.30;;
15130;SDS011;7666;50.920;4.628;2022-12-24T04:53:13;27.70;;;5.70;;
15130;SDS011;7666;50.920;4.628;2022-12-24T04:55:59;28.30;;;5.77;;
15130;SDS011;7666;50.920;4.628;2022-12-24T04:58:46;30.17;;;6.07;;
15130;SDS011;7666;50.920;4.628;2022-12-24T05:01:32;28.53;;;5.90;;
15130;SDS011;7666;50.920;4.628;2022-12-24T05:04:18;27.67;;;5.30;;
15130;SDS011;7666;50.920;4.628;2022-12-24T05:07:04;26.57;;;5.63;;
15130;SDS011;7666;50.920;4.628;2022-12-24T05:09:50;23.63;;;5.17;;
15130;SDS011;7666;50.920;4.628;2022-12-24T05:12:37;32.50;;;6.37;;
15130;SDS011;7666;50.920;4.628;2022-12-24T05:15:23;34.37;;;6.63;;
15130;SDS011;7666;50.920;4.628;2022-12-24T05:18:09;35.50;;;6.07;;
15130;SDS011;7666;50.920;4.628;2022-12-24T05:20:55;33.77;;;6.40;;
15130;SDS011;7666;50.920;4.628;2022-12-24T05:23:41;29.93;;;5.27;;
15130;SDS011;7666;50.920;4.628;2022-12-24T05:26:52;25.77;;;5.90;;
15130;SDS011;7666;50.920;4.628;2022-12-24T05:29:40;35.83;;;6.00;;
15130;SDS011;7666;50.920;4.628;2022-12-24T05:32:26;27.20;;;5.73;;
15130;SDS011;7666;50.920;4.628;2022-12-24T05:35:13;28.63;;;5.93;;
15130;SDS011;7666;50.920;4.628;2022-12-24T05:37:59;27.43;;;5.10;;
15130;SDS011;7666;50.920;4.628;2022-12-24T05:40:45;21.60;;;5.27;;
15130;SDS011;7666;50.920;4.628;2022-12-24T05:43:31;27.43;;;5.67;;
15130;SDS011;7666;50.920;4.628;2022-12-24T05:46:18;29.10;;;5.73;;
15130;SDS011;7666;50.920;4.628;2022-12-24T05:49:05;31.23;;;5.90;;
15130;SDS011;7666;50.920;4.628;2022-12-24T05:51:51;33.83;;;5.97;;
15130;SDS011;7666;50.920;4.628;2022-12-24T05:54:37;30.27;;;5.80;;
15130;SDS011;7666;50.920;4.628;2022-12-24T05:57:23;31.53;;;6.13;;
15130;SDS011;7666;50.920;4.628;2022-12-24T06:00:09;26.33;;;6.13;;
15130;SDS011;7666;50.920;4.628;2022-12-24T06:02:56;26.90;;;5.43;;
15130;SDS011;7666;50.920;4.628;2022-12-24T06:05:42;33.63;;;5.97;;
15130;SDS011;7666;50.920;4.628;2022-12-24T06:08:28;30.73;;;5.93;;
15130;SDS011;7666;50.920;4.628;2022-12-24T06:11:16;26.63;;;5.73;;
15130;SDS011;7666;50.920;4.628;2022-12-24T06:14:04;28.33;;;6.03;;
15130;SDS011;7666;50.920;4.628;2022-12-24T06:16:50;31.57;;;5.70;;
15130;SDS011;7666;50.920;4.628;2022-12-24T06:19:36;35.20;;;6.93;;
15130;SDS011;7666;50.920;4.628;2022-12-24T06:22:22;28.90;;;5.83;;
15130;SDS011;7666;50.920;4.628;2022-12-24T06:25:08;34.00;;;6.03;;
15130;SDS011;7666;50.920;4.628;2022-12-24T06:27:54;32.37;;;6.03;;
15130;SDS011;7666;50.920;4.628;2022-12-24T06:30:40;33.37;;;6.93;;
15130;SDS011;7666;50.920;4.628;2022-12-24T06:33:30;30.93;;;5.93;;
15130;SDS011;7666;50.920;4.628;2022-12-24T06:36:21;28.53;;;6.90;;
15130;SDS011;7666;50.920;4.628;2022-12-24T06:39:08;27.47;;;6.03;;
15130;SDS011;7666;50.920;4.628;2022-12-24T06:41:54;32.50;;;6.10;;
15130;SDS011;7666;50.920;4.628;2022-12-24T06:44:40;29.53;;;5.83;;
15130;SDS011;7666;50.920;4.628;2022-12-24T06:47:26;30.23;;;6.70;;
15130;SDS011;7666;50.920;4.628;2022-12-24T06:50:12;34.27;;;6.53;;
15130;SDS011;7666;50.920;4.628;2022-12-24T06:52:58;30.70;;;5.67;;
15130;SDS011;7666;50.920;4.628;2022-12-24T06:55:44;38.47;;;7.03;;
15130;SDS011;7666;50.920;4.628;2022-12-24T06:58:30;33.70;;;6.03;;
15130;SDS011;7666;50.920;4.628;2022-12-24T07:01:18;31.83;;;5.47;;
15130;SDS011;7666;50.920;4.628;2022-12-24T07:04:05;29.20;;;6.10;;
15130;SDS011;7666;50.920;4.628;2022-12-24T07:06:50;27.93;;;5.83;;
15130;SDS011;7666;50.920;4.628;2022-12-24T07:09:37;30.07;;;5.57;;
15130;SDS011;7666;50.920;4.628;2022-12-24T07:12:23;30.77;;;6.60;;
15130;SDS011;7666;50.920;4.628;2022-12-24T07:15:09;36.47;;;6.13;;
15130;SDS011;7666;50.920;4.628;2022-12-24T07:17:55;31.37;;;5.63;;
15130;SDS011;7666;50.920;4.628;2022-12-24T07:20:41;36.70;;;6.77;;
15130;SDS011;7666;50.920;4.628;2022-12-24T07:23:27;33.37;;;6.27;;
15130;SDS011;7666;50.920;4.628;2022-12-24T07:26:13;30.53;;;5.90;;
15130;SDS011;7666;50.920;4.628;2022-12-24T07:28:59;33.87;;;6.17;;
15130;SDS011;7666;50.920;4.628;2022-12-24T07:31:45;30.87;;;6.13;;
15130;SDS011;7666;50.920;4.628;2022-12-24T07:34:31;32.13;;;6.80;;
15130;SDS011;7666;50.920;4.628;2022-12-24T07:37:17;39.37;;;11.97;;
15130;SDS011;7666;50.920;4.628;2022-12-24T07:40:03;35.60;;;6.70;;
15130;SDS011;7666;50.920;4.628;2022-12-24T07:42:54;26.87;;;6.03;;
15130;SDS011;7666;50.920;4.628;2022-12-24T07:45:39;22.37;;;5.57;;
15130;SDS011;7666;50.920;4.628;2022-12-24T07:48:26;28.60;;;6.27;;
15130;SDS011;7666;50.920;4.628;2022-12-24T07:51:13;35.17;;;6.13;;
15130;SDS011;7666;50.920;4.628;2022-12-24T07:53:59;29.20;;;6.17;;
15130;SDS011;7666;50.920;4.628;2022-12-24T07:56:45;36.87;;;7.40;;
15130;SDS011;7666;50.920;4.628;2022-12-24T07:59:31;27.60;;;5.80;;
15130;SDS011;7666;50.920;4.628;2022-12-24T08:02:17;29.97;;;6.53;;
15130;SDS011;7666;50.920;4.628;2022-12-24T08:05:03;32.77;;;6.60;;
15130;SDS011;7666;50.920;4.628;2022-12-24T08:07:50;32.23;;;6.30;;
15130;SDS011;7666;50.920;4.628;2022-12-24T08:10:42;32.93;;;5.87;;
15130;SDS011;7666;50.920;4.628;2022-12-24T08:13:29;34.50;;;6.60;;
15130;SDS011;7666;50.920;4.628;2022-12-24T08:16:16;31.57;;;6.80;;
15130;SDS011;7666;50.920;4.628;2022-12-24T08:19:02;32.97;;;6.40;;
15130;SDS011;7666;50.920;4.628;2022-12-24T08:21:48;31.33;;;6.20;;
15130;SDS011;7666;50.920;4.628;2022-12-24T08:24:34;36.60;;;7.20;;
15130;SDS011;7666;50.920;4.628;2022-12-24T08:27:21;35.47;;;6.40;;
15130;SDS011;7666;50.920;4.628;2022-12-24T08:30:07;34.73;;;7.07;;
15130;SDS011;7666;50.920;4.628;2022-12-24T08:32:54;26.57;;;6.20;;
15130;SDS011;7666;50.920;4.628;2022-12-24T08:35:40;36.67;;;7.00;;
15130;SDS011;7666;50.920;4.628;2022-12-24T08:38:31;28.83;;;6.30;;
15130;SDS011;7666;50.920;4.628;2022-12-24T08:41:17;25.97;;;6.30;;
15130;SDS011;7666;50.920;4.628;2022-12-24T08:44:03;35.83;;;6.87;;
15130;SDS011;7666;50.920;4.628;2022-12-24T08:46:49;35.13;;;6.57;;
15130;SDS011;7666;50.920;4.628;2022-12-24T08:49:35;27.77;;;6.20;;
15130;SDS011;7666;50.920;4.628;2022-12-24T08:52:21;29.80;;;6.23;;
15130;SDS011;7666;50.920;4.628;2022-12-24T08:55:07;27.17;;;6.37;;
15130;SDS011;7666;50.920;4.628;2022-12-24T08:57:53;30.60;;;6.27;;
15130;SDS011;7666;50.920;4.628;2022-12-24T09:00:39;29.17;;;5.87;;
15130;SDS011;7666;50.920;4.628;2022-12-24T09:03:25;35.13;;;6.90;;
15130;SDS011;7666;50.920;4.628;2022-12-24T09:06:12;25.20;;;5.70;;
15130;SDS011;7666;50.920;4.628;2022-12-24T09:08:58;30.40;;;7.10;;
15130;SDS011;7666;50.920;4.628;2022-12-24T09:11:44;31.87;;;7.07;;
15130;SDS011;7666;50.920;4.628;2022-12-24T09:14:30;27.87;;;5.80;;
15130;SDS011;7666;50.920;4.628;2022-12-24T09:17:16;27.17;;;5.60;;
15130;SDS011;7666;50.920;4.628;2022-12-24T09:20:03;28.33;;;6.13;;
15130;SDS011;7666;50.920;4.628;2022-12-24T09:22:51;26.40;;;5.77;;
15130;SDS011;7666;50.920;4.628;2022-12-24T09:25:40;28.97;;;6.67;;
15130;SDS011;7666;50.920;4.628;2022-12-24T09:28:26;27.63;;;6.13;;
15130;SDS011;7666;50.920;4.628;2022-12-24T09:31:13;27.93;;;6.10;;
15130;SDS011;7666;50.920;4.628;2022-12-24T09:33:59;30.73;;;6.23;;
15130;SDS011;7666;50.920;4.628;2022-12-24T09:36:45;29.47;;;6.10;;
15130;SDS011;7666;50.920;4.628;2022-12-24T09:39:31;32.87;;;6.60;;
15130;SDS011;7666;50.920;4.628;2022-12-24T09:45:37;32.67;;;6.53;;
15130;SDS011;7666;50.920;4.628;2022-12-24T09:48:28;31.03;;;7.17;;
15130;SDS011;7666;50.920;4.628;2022-12-24T09:51:31;35.83;;;7.97;;
15130;SDS011;7666;50.920;4.628;2022-12-24T09:54:32;31.63;;;7.63;;
15130;SDS011;7666;50.920;4.628;2022-12-24T09:57:26;29.17;;;6.80;;
15130;SDS011;7666;50.920;4.628;2022-12-24T10:03:16;31.37;;;6.57;;
15130;SDS011;7666;50.920;4.628;2022-12-24T10:09:02;29.87;;;6.93;;
15130;SDS011;7666;50.920;4.628;2022-12-24T10:27:54;30.70;;;6.63;;
15130;SDS011;7666;50.920;4.628;2022-12-24T10:30:46;37.20;;;7.20;;
15130;SDS011;7666;50.920;4.628;2022-12-24T10:33:44;32.13;;;6.97;;
15130;SDS011;7666;50.920;4.628;2022-12-24T10:36:34;29.00;;;6.27;;
15130;SDS011;7666;50.920;4.628;2022-12-24T10:39:21;26.00;;;6.00;;
15130;SDS011;7666;50.920;4.628;2022-12-24T10:42:09;21.40;;;6.10;;
15130;SDS011;7666;50.920;4.628;2022-12-24T10:45:00;25.97;;;6.60;;
15130;SDS011;7666;50.920;4.628;2022-12-24T10:47:49;27.67;;;6.23;;
15130;SDS011;7666;50.920;4.628;2022-12-24T10:53:59;31.33;;;7.07;;
15130;SDS011;7666;50.920;4.628;2022-12-24T10:56:56;26.63;;;5.53;;
15130;SDS011;7666;50.920;4.628;2022-12-24T10:59:51;33.20;;;6.60;;
15130;SDS011;7666;50.920;4.628;2022-12-24T11:02:39;29.13;;;5.73;;
15130;SDS011;7666;50.920;4.628;2022-12-24T11:05:29;27.90;;;6.40;;
15130;SDS011;7666;50.920;4.628;2022-12-24T11:08:18;27.83;;;6.93;;
15130;SDS011;7666;50.920;4.628;2022-12-24T11:11:08;32.07;;;5.87;;
15130;SDS011;7666;50.920;4.628;2022-12-24T11:13:57;29.93;;;7.13;;
15130;SDS011;7666;50.920;4.628;2022-12-24T11:16:50;31.20;;;6.17;;
15130;SDS011;7666;50.920;4.628;2022-12-24T11:19:40;29.80;;;6.80;;
15130;SDS011;7666;50.920;4.628;2022-12-24T11:22:32;29.33;;;6.57;;
15130;SDS011;7666;50.920;4.628;2022-12-24T11:25:20;26.43;;;5.83;;
15130;SDS011;7666;50.920;4.628;2022-12-24T11:28:10;33.50;;;7.20;;
15130;SDS011;7666;50.920;4.628;2022-12-24T11:30:59;27.03;;;6.50;;
15130;SDS011;7666;50.920;4.628;2022-12-24T11:34:16;30.37;;;6.53;;
15130;SDS011;7666;50.920;4.628;2022-12-24T11:39:59;34.40;;;7.97;;
15130;SDS011;7666;50.920;4.628;2022-12-24T11:42:46;27.23;;;6.73;;
15130;SDS011;7666;50.920;4.628;2022-12-24T11:45:37;31.27;;;7.03;;
15130;SDS011;7666;50.920;4.628;2022-12-24T11:48:30;27.07;;;5.80;;
15130;SDS011;7666;50.920;4.628;2022-12-24T11:51:18;34.47;;;6.23;;
15130;SDS011;7666;50.920;4.628;2022-12-24T11:54:16;29.83;;;6.37;;
15130;SDS011;7666;50.920;4.628;2022-12-24T11:57:07;39.53;;;7.70;;
15130;SDS011;7666;50.920;4.628;2022-12-24T11:59:55;31.30;;;6.50;;
15130;SDS011;7666;50.920;4.628;2022-12-24T12:02:42;24.67;;;5.90;;
15130;SDS011;7666;50.920;4.628;2022-12-24T12:05:32;24.53;;;5.63;;
15130;SDS011;7666;50.920;4.628;2022-12-24T12:08:19;23.53;;;6.03;;
15130;SDS011;7666;50.920;4.628;2022-12-24T12:11:10;26.67;;;5.80;;
15130;SDS011;7666;50.920;4.628;2022-12-24T12:13:58;26.33;;;5.80;;
15130;SDS011;7666;50.920;4.628;2022-12-24T12:17:05;28.33;;;5.90;;
15130;SDS011;7666;50.920;4.628;2022-12-24T12:20:13;27.80;;;6.07;;
15130;SDS011;7666;50.920;4.628;2022-12-24T12:26:26;29.63;;;6.90;;
15130;SDS011;7666;50.920;4.628;2022-12-24T12:32:11;28.03;;;6.00;;
15130;SDS011;7666;50.920;4.628;2022-12-24T12:35:16;27.93;;;6.17;;
15130;SDS011;7666;50.920;4.628;2022-12-24T12:38:11;28.27;;;5.60;;
15130;SDS011;7666;50.920;4.628;2022-12-24T12:41:07;31.63;;;6.93;;
15130;SDS011;7666;50.920;4.628;2022-12-24T12:43:59;27.37;;;5.83;;
15130;SDS011;7666;50.920;4.628;2022-12-24T13:17:32;27.20;;;5.90;;
15130;SDS011;7666;50.920;4.628;2022-12-24T13:20:45;22.33;;;5.53;;
15130;SDS011;7666;50.920;4.628;2022-12-24T13:23:33;22.10;;;5.10;;
15130;SDS011;7666;50.920;4.628;2022-12-24T13:26:19;26.73;;;5.80;;
15130;SDS011;7666;50.920;4.628;2022-12-24T13:29:28;24.43;;;5.63;;
15130;SDS011;7666;50.920;4.628;2022-12-24T13:44:17;20.57;;;5.13;;
15130;SDS011;7666;50.920;4.628;2022-12-24T13:47:17;22.60;;;4.90;;
15130;SDS011;7666;50.920;4.628;2022-12-24T13:50:28;26.53;;;5.43;;
15130;SDS011;7666;50.920;4.628;2022-12-24T13:56:27;19.30;;;4.87;;
15130;SDS011;7666;50.920;4.628;2022-12-24T13:59:23;21.90;;;4.93;;
15130;SDS011;7666;50.920;4.628;2022-12-24T14:02:22;23.23;;;5.40;;
15130;SDS011;7666;50.920;4.628;2022-12-24T14:05:15;23.97;;;5.33;;
15130;SDS011;7666;50.920;4.628;2022-12-24T14:08:06;25.47;;;5.73;;
15130;SDS011;7666;50.920;4.628;2022-12-24T14:11:14;26.20;;;5.50;;
15130;SDS011;7666;50.920;4.628;2022-12-24T14:14:09;28.33;;;5.70;;
15130;SDS011;7666;50.920;4.628;2022-12-24T14:16:57;22.60;;;5.20;;
15130;SDS011;7666;50.920;4.628;2022-12-24T14:19:53;25.07;;;6.23;;
15130;SDS011;7666;50.920;4.628;2022-12-24T14:22:43;18.93;;;4.67;;
15130;SDS011;7666;50.920;4.628;2022-12-24T14:25:31;20.60;;;5.40;;
15130;SDS011;7666;50.920;4.628;2022-12-24T14:28:17;31.93;;;6.17;;
15130;SDS011;7666;50.920;4.628;2022-12-24T14:31:17;21.37;;;5.20;;
15130;SDS011;7666;50.920;4.628;2022-12-24T14:34:04;20.90;;;4.93;;
15130;SDS011;7666;50.920;4.628;2022-12-24T14:36:53;20.00;;;5.27;;
15130;SDS011;7666;50.920;4.628;2022-12-24T14:39:44;21.70;;;5.03;;
15130;SDS011;7666;50.920;4.628;2022-12-24T14:42:45;19.17;;;5.60;;
15130;SDS011;7666;50.920;4.628;2022-12-24T14:46:11;24.23;;;5.00;;
15130;SDS011;7666;50.920;4.628;2022-12-24T14:49:06;21.47;;;5.43;;
15130;SDS011;7666;50.920;4.628;2022-12-24T14:55:27;27.87;;;5.50;;
15130;SDS011;7666;50.920;4.628;2022-12-24T15:01:19;19.20;;;4.80;;
15130;SDS011;7666;50.920;4.628;2022-12-24T15:06:55;21.53;;;4.40;;
15130;SDS011;7666;50.920;4.628;2022-12-24T15:09:42;19.17;;;4.83;;
15130;SDS011;7666;50.920;4.628;2022-12-24T15:12:28;21.90;;;4.40;;
15130;SDS011;7666;50.920;4.628;2022-12-24T15:15:16;18.80;;;5.63;;
15130;SDS011;7666;50.920;4.628;2022-12-24T15:18:03;17.93;;;4.37;;
15130;SDS011;7666;50.920;4.628;2022-12-24T15:20:50;14.90;;;4.03;;
15130;SDS011;7666;50.920;4.628;2022-12-24T15:23:43;26.73;;;5.43;;
15130;SDS011;7666;50.920;4.628;2022-12-24T15:26:32;25.50;;;5.00;;
15130;SDS011;7666;50.920;4.628;2022-12-24T15:29:22;19.57;;;4.50;;
15130;SDS011;7666;50.920;4.628;2022-12-24T15:32:13;21.07;;;5.47;;
15130;SDS011;7666;50.920;4.628;2022-12-24T15:35:01;19.30;;;4.93;;
15130;SDS011;7666;50.920;4.628;2022-12-24T15:37:47;17.47;;;4.77;;
15130;SDS011;7666;50.920;4.628;2022-12-24T15:40:33;22.20;;;5.37;;
15130;SDS011;7666;50.920;4.628;2022-12-24T15:43:19;19.93;;;4.97;;
15130;SDS011;7666;50.920;4.628;2022-12-24T15:46:05;18.73;;;4.40;;
15130;SDS011;7666;50.920;4.628;2022-12-24T15:48:53;18.60;;;4.33;;
15130;SDS011;7666;50.920;4.628;2022-12-24T15:51:40;17.60;;;4.27;;
15130;SDS011;7666;50.920;4.628;2022-12-24T15:54:26;21.13;;;4.87;;
15130;SDS011;7666;50.920;4.628;2022-12-24T15:57:28;23.93;;;5.07;;
15130;SDS011;7666;50.920;4.628;2022-12-24T16:00:20;18.30;;;5.07;;
15130;SDS011;7666;50.920;4.628;2022-12-24T16:03:08;17.47;;;5.03;;
15130;SDS011;7666;50.920;4.628;2022-12-24T16:08:49;18.93;;;4.03;;
15130;SDS011;7666;50.920;4.628;2022-12-24T16:11:36;17.13;;;4.10;;
15130;SDS011;7666;50.920;4.628;2022-12-24T16:14:22;16.87;;;4.07;;
15130;SDS011;7666;50.920;4.628;2022-12-24T16:17:19;21.47;;;5.27;;
15130;SDS011;7666;50.920;4.628;2022-12-24T16:20:14;16.57;;;4.63;;
15130;SDS011;7666;50.920;4.628;2022-12-24T16:23:04;21.87;;;5.63;;
15130;SDS011;7666;50.920;4.628;2022-12-24T16:25:50;22.20;;;6.47;;
15130;SDS011;7666;50.920;4.628;2022-12-24T16:28:37;21.77;;;6.50;;
15130;SDS011;7666;50.920;4.628;2022-12-24T16:31:33;23.40;;;6.13;;
15130;SDS011;7666;50.920;4.628;2022-12-24T16:34:26;19.63;;;5.63;;
15130;SDS011;7666;50.920;4.628;2022-12-24T16:37:13;21.03;;;5.83;;
15130;SDS011;7666;50.920;4.628;2022-12-24T16:39:59;24.70;;;6.47;;
15130;SDS011;7666;50.920;4.628;2022-12-24T16:42:45;27.00;;;6.67;;
15130;SDS011;7666;50.920;4.628;2022-12-24T16:45:50;27.70;;;6.90;;
15130;SDS011;7666;50.920;4.628;2022-12-24T16:48:36;24.10;;;6.63;;
15130;SDS011;7666;50.920;4.628;2022-12-24T16:51:22;28.37;;;7.03;;
15130;SDS011;7666;50.920;4.628;2022-12-24T16:54:12;25.93;;;6.30;;
15130;SDS011;7666;50.920;4.628;2022-12-24T16:56:58;26.03;;;6.77;;
15130;SDS011;7666;50.920;4.628;2022-12-24T16:59:44;24.23;;;6.87;;
15130;SDS011;7666;50.920;4.628;2022-12-24T17:02:30;28.40;;;6.73;;
15130;SDS011;7666;50.920;4.628;2022-12-24T17:05:16;28.93;;;7.20;;
15130;SDS011;7666;50.920;4.628;2022-12-24T17:08:02;31.17;;;7.73;;
15130;SDS011;7666;50.920;4.628;2022-12-24T17:10:49;25.90;;;6.70;;
15130;SDS011;7666;50.920;4.628;2022-12-24T17:13:36;31.40;;;6.10;;
15130;SDS011;7666;50.920;4.628;2022-12-24T17:16:21;26.67;;;6.13;;
15130;SDS011;7666;50.920;4.628;2022-12-24T17:19:08;27.97;;;6.93;;
15130;SDS011;7666;50.920;4.628;2022-12-24T17:21:54;23.17;;;6.53;;
15130;SDS011;7666;50.920;4.628;2022-12-24T17:24:40;24.57;;;6.57;;
15130;SDS011;7666;50.920;4.628;2022-12-24T17:27:26;24.80;;;7.00;;
15130;SDS011;7666;50.920;4.628;2022-12-24T17:30:12;30.17;;;7.23;;
15130;SDS011;7666;50.920;4.628;2022-12-24T17:33:00;24.43;;;7.03;;
15130;SDS011;7666;50.920;4.628;2022-12-24T17:35:46;28.73;;;7.63;;
15130;SDS011;7666;50.920;4.628;2022-12-24T17:38:34;27.57;;;8.00;;
15130;SDS011;7666;50.920;4.628;2022-12-24T17:41:21;27.67;;;8.00;;
15130;SDS011;7666;50.920;4.628;2022-12-24T17:44:08;26.27;;;7.90;;
15130;SDS011;7666;50.920;4.628;2022-12-24T17:46:57;33.80;;;9.10;;
15130;SDS011;7666;50.920;4.628;2022-12-24T17:49:43;31.67;;;8.60;;
15130;SDS011;7666;50.920;4.628;2022-12-24T17:52:28;33.50;;;8.30;;
15130;SDS011;7666;50.920;4.628;2022-12-24T17:55:14;31.83;;;8.13;;
15130;SDS011;7666;50.920;4.628;2022-12-24T17:58:00;28.70;;;7.60;;
15130;SDS011;7666;50.920;4.628;2022-12-24T18:00:46;32.17;;;9.07;;
15130;SDS011;7666;50.920;4.628;2022-12-24T18:03:33;31.10;;;8.67;;
15130;SDS011;7666;50.920;4.628;2022-12-24T18:06:19;28.03;;;8.17;;
15130;SDS011;7666;50.920;4.628;2022-12-24T18:09:05;31.70;;;7.97;;
15130;SDS011;7666;50.920;4.628;2022-12-24T18:11:51;34.67;;;8.93;;
15130;SDS011;7666;50.920;4.628;2022-12-24T18:14:37;36.43;;;9.17;;
15130;SDS011;7666;50.920;4.628;2022-12-24T18:17:23;29.50;;;8.50;;
15130;SDS011;7666;50.920;4.628;2022-12-24T18:20:09;28.23;;;8.57;;
15130;SDS011;7666;50.920;4.628;2022-12-24T18:22:56;31.93;;;8.67;;
15130;SDS011;7666;50.920;4.628;2022-12-24T18:25:42;32.83;;;8.83;;
15130;SDS011;7666;50.920;4.628;2022-12-24T18:28:28;28.83;;;7.83;;
15130;SDS011;7666;50.920;4.628;2022-12-24T18:31:15;31.20;;;8.57;;
15130;SDS011;7666;50.920;4.628;2022-12-24T18:34:03;26.43;;;8.37;;
15130;SDS011;7666;50.920;4.628;2022-12-24T18:36:51;29.10;;;7.57;;
15130;SDS011;7666;50.920;4.628;2022-12-24T18:39:37;24.30;;;8.03;;
15130;SDS011;7666;50.920;4.628;2022-12-24T18:42:23;26.63;;;6.97;;
15130;SDS011;7666;50.920;4.628;2022-12-24T18:45:09;31.37;;;7.60;;
15130;SDS011;7666;50.920;4.628;2022-12-24T18:47:55;25.23;;;7.27;;
15130;SDS011;7666;50.920;4.628;2022-12-24T18:50:41;26.53;;;7.50;;
15130;SDS011;7666;50.920;4.628;2022-12-24T18:53:27;28.83;;;8.77;;
15130;SDS011;7666;50.920;4.628;2022-12-24T18:56:14;25.43;;;8.27;;